Time;durP1;ratioP1;P1;durP2;ratioP2;P2;SDS_P1;SDS_P2;PMS_P1;PMS_P2;Temp;Humidity;BMP_temperature;BMP_pressure;BME280_temperature;BME280_humidity;BME280_pressure;Samples;Min_cycle;Max_cycle;Signal;HPM_P1;HPM_P2
2021/06/13 00:00:19;;;;;;;;;;;;;;;17.45;56.46;96629.32;1781143;80;20129;-82
2021/06/13 00:02:46;;;;;;;;;;;;;;;17.48;56.37;96629.46;1789566;80;20104;-85
2021/06/13 00:05:14;;;;;;;;;;;;;;;17.50;56.53;96626.13;1791672;80;20078;-85
2021/06/13 00:07:40;;;;;;;;;;;;;;;17.52;56.21;96624.12;1795281;80;20134;-82
2021/06/13 00:10:08;;;;;;;;;;;;;;;17.53;56.51;96624.93;1790697;80;20124;-83
2021/06/13 00:12:34;;;;;;;;;;;;;;;17.55;56.39;96618.92;1790899;80;20109;-82
2021/06/13 00:15:01;;;;;;;;;;;;;;;17.56;55.06;96624.06;1791016;80;20405;-86
2021/06/13 00:17:27;;;;;;;;;;;;;;;17.59;54.93;96623.72;1791073;80;20104;-87
2021/06/13 00:19:53;;;;;;;;;;;;;;;17.62;55.78;96622.52;1791160;80;20093;-87
2021/06/13 00:22:19;;;;;;;;;;;;;;;17.66;55.81;96627.84;1790977;80;20108;-87
2021/06/13 00:24:45;;;;;;;;;;;;;;;17.68;56.73;96623.64;1790891;80;20096;-87
2021/06/13 00:27:11;;;;;;;;;;;;;;;17.69;55.20;96621.31;1791140;80;20084;-87
2021/06/13 00:29:37;;;;;;;;;;;;;;;17.69;57.23;96628.78;1785410;80;20128;-88
2021/06/13 00:32:04;;;;;;;;;;;;;;;17.70;56.22;96630.45;1782765;80;20104;-89
2021/06/13 00:34:30;;;;;;;;;;;;;;;17.72;55.85;96623.63;1761191;80;20180;-88
2021/06/13 00:37:00;;;;;;;;;;;;;;;17.73;56.35;96624.77;1783275;80;20136;-86
2021/06/13 00:39:26;;;;;;;;;;;;;;;17.75;56.26;96631.23;1782668;80;20104;-88
2021/06/13 00:41:56;;;;;;;;;;;;;;;17.76;55.46;96613.75;1784643;80;20138;-90
2021/06/13 00:44:22;;;;;;;;;;;;;;;17.78;56.15;96614.90;1790174;80;20098;-88
2021/06/13 00:46:50;;;;;;;;;;;;;;;17.77;56.54;96611.39;1790036;80;20083;-86
2021/06/13 00:49:17;;;;;;;;;;;;;;;17.77;56.01;96615.91;1788514;80;20154;-89
2021/06/13 00:51:44;;;;;;;;;;;;;;;17.77;57.09;96619.38;1782993;80;20093;-89
2021/06/13 00:54:11;;;;;;;;;;;;;;;17.77;56.78;96611.91;1760849;81;20140;-89
2021/06/13 00:56:37;;;;;;;;;;;;;;;17.77;56.26;96598.06;1782966;80;20097;-88
2021/06/13 00:59:04;;;;;;;;;;;;;;;17.75;58.93;96594.77;1782792;81;20120;-88
2021/06/13 01:01:30;;;;;;;;;;;;;;;17.74;59.60;96577.13;1782822;81;20089;-89
2021/06/13 01:03:57;;;;;;;;;;;;;;;17.70;58.50;96579.00;1782920;80;20084;-88
2021/06/13 01:06:44;;;;;;;;;;;;;;;17.59;58.58;96576.24;1782810;80;20105;-89
2021/06/13 01:09:13;;;;;;;;;;;;;;;17.52;60.78;96569.98;1760747;80;20139;-90
2021/06/13 01:11:51;;;;;;;;;;;;;;;17.49;61.94;96560.52;1789944;80;20127;-90
2021/06/13 01:14:33;;;;;;;;;;;;;;;17.47;62.35;96563.37;1788779;80;20513;-87
2021/06/13 01:17:03;;;;;;;;;;;;;;;17.43;61.23;96555.41;1782962;80;20219;-88
2021/06/13 01:19:48;;;;;;;;;;;;;;;17.42;62.19;96546.27;1782476;80;20105;-91
2021/06/13 01:22:29;;;;;;;;;;;;;;;17.41;61.34;96534.77;1782683;81;20101;-91
2021/06/13 01:25:02;;;;;;;;;;;;;;;17.39;62.14;96514.17;1782777;81;20081;-91
2021/06/13 01:27:35;;;;;;;;;;;;;;;17.32;61.70;96505.22;1782638;80;20136;-85
2021/06/13 01:30:07;;;;;;;;;;;;;;;17.27;59.75;96493.77;1782681;80;20105;-86
2021/06/13 01:32:34;;;;;;;;;;;;;;;17.22;63.50;96508.15;1753608;82;20135;-90
2021/06/13 01:35:08;;;;;;;;;;;;;;;17.20;64.15;96508.01;1731143;82;20087;-91
2021/06/13 01:37:37;;;;;;;;;;;;;;;17.21;62.13;96496.36;1778773;80;20405;-89
2021/06/13 01:40:12;;;;;;;;;;;;;;;17.20;63.44;96492.84;1762358;80;20383;-91
2021/06/13 01:42:42;;;;;;;;;;;;;;;17.23;62.47;96498.31;1789626;80;20102;-90
2021/06/13 01:45:10;;;;;;;;;;;;;;;17.24;63.74;96483.50;1759712;80;20102;-89
2021/06/13 01:47:37;;;;;;;;;;;;;;;17.29;62.73;96478.97;1789951;80;20423;-91
2021/06/13 01:50:05;;;;;;;;;;;;;;;17.32;61.57;96471.92;1789964;80;20395;-92
2021/06/13 01:52:34;;;;;;;;;;;;;;;17.35;60.05;96481.42;1790170;80;20090;-91
2021/06/13 01:55:02;;;;;;;;;;;;;;;17.37;62.60;96480.22;1789996;80;20102;-91
2021/06/13 01:57:30;;;;;;;;;;;;;;;17.42;61.66;96481.00;1782988;80;20093;-89
2021/06/13 01:59:59;;;;;;;;;;;;;;;17.44;61.66;96474.48;1782296;80;20183;-91
2021/06/13 02:02:26;;;;;;;;;;;;;;;17.47;67.78;96479.45;1761168;81;20105;-91
2021/06/13 02:04:53;;;;;;;;;;;;;;;17.51;64.98;96476.41;1762521;80;20095;-91
2021/06/13 02:07:20;;;;;;;;;;;;;;;17.53;62.71;96473.06;1785005;80;20099;-89
2021/06/13 02:09:47;;;;;;;;;;;;;;;17.54;63.93;96472.87;1789995;80;20095;-88
2021/06/13 02:12:15;;;;;;;;;;;;;;;17.57;63.42;96469.84;1784387;80;20132;-91
2021/06/13 02:14:49;;;;;;;;;;;;;;;17.62;63.65;96458.64;1780861;80;20393;-90
2021/06/13 02:17:17;;;;;;;;;;;;;;;17.62;64.02;96445.32;1782489;80;20095;-92
2021/06/13 02:19:46;;;;;;;;;;;;;;;17.66;63.94;96442.63;1783959;80;20134;-92
2021/06/13 02:22:18;;;;;;;;;;;;;;;17.72;64.13;96438.40;1784849;80;20087;-91
2021/06/13 02:24:45;;;;;;;;;;;;;;;17.75;63.80;96437.52;1783206;81;20163;-89
2021/06/13 02:27:16;;;;;;;;;;;;;;;17.79;64.08;96444.12;1782868;81;20145;-92
2021/06/13 02:29:45;;;;;;;;;;;;;;;17.82;64.08;96442.09;1781014;80;20105;-91
2021/06/13 02:32:13;;;;;;;;;;;;;;;17.82;62.49;96446.09;1784417;80;20098;-88
2021/06/13 02:34:39;;;;;;;;;;;;;;;17.79;63.43;96446.78;1798137;80;20129;-91
2021/06/13 02:37:08;;;;;;;;;;;;;;;17.80;62.19;96443.63;1798366;79;20102;-90
2021/06/13 02:39:35;;;;;;;;;;;;;;;17.80;64.32;96451.63;1798262;79;20102;-90
2021/06/13 02:42:03;;;;;;;;;;;;;;;17.79;63.47;96446.78;1798346;79;20129;-91
2021/06/13 02:44:30;;;;;;;;;;;;;;;17.83;63.74;96442.42;1798349;79;20094;-90
2021/06/13 02:46:56;;;;;;;;;;;;;;;17.84;63.48;96445.41;1798355;79;20110;-90
2021/06/13 02:49:23;;;;;;;;;;;;;;;17.82;62.30;96438.11;1798516;79;20126;-92
2021/06/13 02:51:53;;;;;;;;;;;;;;;17.74;61.27;96453.67;1798280;79;20118;-90
2021/06/13 02:54:19;;;;;;;;;;;;;;;17.72;62.50;96450.39;1785661;80;20150;-90
2021/06/13 02:56:51;;;;;;;;;;;;;;;17.70;63.43;96450.55;1775996;80;20203;-83
2021/06/13 02:59:27;;;;;;;;;;;;;;;17.72;63.03;96452.54;1777076;80;20097;-90
2021/06/13 03:01:54;;;;;;;;;;;;;;;17.72;62.94;96453.06;1778898;80;20159;-90
2021/06/13 03:04:22;;;;;;;;;;;;;;;17.71;63.79;96459.39;1798950;80;20106;-89
2021/06/13 03:06:54;;;;;;;;;;;;;;;17.69;62.60;96465.41;1798990;80;20086;-91
2021/06/13 03:09:26;;;;;;;;;;;;;;;17.55;63.40;96431.09;1798481;78;20094;-92
2021/06/13 03:11:54;;;;;;;;;;;;;;;17.63;64.19;96455.78;1798977;80;20094;-90
2021/06/13 03:14:23;;;;;;;;;;;;;;;17.60;61.39;96454.00;1799090;80;20098;-87
2021/06/13 03:16:52;;;;;;;;;;;;;;;17.55;61.92;96464.39;1799093;80;20105;-88
2021/06/13 03:19:19;;;;;;;;;;;;;;;17.52;64.43;96468.25;1777851;80;20108;-86
2021/06/13 03:21:47;;;;;;;;;;;;;;;17.49;65.62;96494.73;1747003;82;20095;-88
2021/06/13 03:24:15;;;;;;;;;;;;;;;17.40;68.88;96531.78;1763339;80;20109;-86
2021/06/13 03:26:43;;;;;;;;;;;;;;;17.11;67.77;96530.72;1775757;80;20150;-90
2021/06/13 03:29:10;;;;;;;;;;;;;;;16.81;67.63;96538.54;1776148;80;20108;-90
2021/06/13 03:31:37;;;;;;;;;;;;;;;16.55;67.89;96547.67;1761388;81;20108;-90
2021/06/13 03:34:03;;;;;;;;;;;;;;;16.35;70.57;96557.08;1761109;81;20121;-90
2021/06/13 03:36:31;;;;;;;;;;;;;;;16.14;72.19;96565.13;1761075;81;20104;-89
2021/06/13 03:38:59;;;;;;;;;;;;;;;15.93;71.25;96566.51;1782822;81;20133;-88
2021/06/13 03:41:26;;;;;;;;;;;;;;;15.79;75.81;96567.19;1761180;81;20100;-92
2021/06/13 03:43:54;;;;;;;;;;;;;;;15.66;74.04;96570.36;1783528;80;20134;-91
2021/06/13 03:46:22;;;;;;;;;;;;;;;15.55;73.30;96576.02;1782824;79;20113;-92
2021/06/13 03:48:50;;;;;;;;;;;;;;;15.45;74.75;96582.33;1782762;81;20125;-89
2021/06/13 03:51:18;;;;;;;;;;;;;;;15.38;76.51;96586.66;1783122;81;20109;-88
2021/06/13 03:53:47;;;;;;;;;;;;;;;15.35;75.90;96584.31;1789341;80;20090;-93
2021/06/13 03:56:17;;;;;;;;;;;;;;;15.30;73.52;96585.33;1790137;80;20103;-92
2021/06/13 03:58:44;;;;;;;;;;;;;;;15.21;77.85;96583.66;1790187;80;20137;-91
2021/06/13 04:01:13;;;;;;;;;;;;;;;15.13;77.26;96585.80;1786825;80;20123;-91
2021/06/13 04:03:41;;;;;;;;;;;;;;;15.10;73.71;96583.47;1787885;80;20099;-90
2021/06/13 04:06:08;;;;;;;;;;;;;;;15.08;74.49;96599.56;1790086;80;20150;-91
2021/06/13 04:08:35;;;;;;;;;;;;;;;15.09;73.44;96613.66;1790160;80;20094;-90
2021/06/13 04:11:01;;;;;;;;;;;;;;;15.07;73.33;96617.81;1759643;80;20229;-91
2021/06/13 04:13:28;;;;;;;;;;;;;;;15.03;73.53;96624.93;1784686;80;20114;-91
2021/06/13 04:15:57;;;;;;;;;;;;;;;14.98;71.81;96616.13;1784878;80;20162;-89
2021/06/13 04:18:23;;;;;;;;;;;;;;;14.97;73.12;96621.10;1789450;80;20145;-91
2021/06/13 04:20:49;;;;;;;;;;;;;;;14.93;75.46;96613.15;1783465;80;20149;-89
2021/06/13 04:23:16;;;;;;;;;;;;;;;14.93;74.32;96613.15;1783369;80;20395;-92
2021/06/13 04:25:43;;;;;;;;;;;;;;;14.97;72.91;96622.42;1763743;80;20134;-93
2021/06/13 04:34:31;;;;;;;;;;;;;;;14.95;72.59;96634.55;1716435;83;20110;-91
2021/06/13 04:36:58;;;;;;;;;;;;;;;15.01;72.53;96640.18;1695168;84;20122;-93
2021/06/13 04:39:24;;;;;;;;;;;;;;;15.04;72.90;96650.48;1710841;84;20098;-93
2021/06/13 04:41:50;;;;;;;;;;;;;;;15.05;73.26;96658.27;1710849;83;20568;-94
2021/06/13 04:44:17;;;;;;;;;;;;;;;15.06;72.17;96662.59;1710730;84;20102;-92
2021/06/13 04:46:43;;;;;;;;;;;;;;;15.06;71.20;96659.12;1710402;83;20126;-91
2021/06/13 04:49:09;;;;;;;;;;;;;;;15.05;72.62;96656.94;1710547;84;20126;-91
2021/06/13 04:51:37;;;;;;;;;;;;;;;15.05;73.26;96655.62;1710594;84;20402;-89
2021/06/13 04:54:13;;;;;;;;;;;;;;;15.08;71.88;96655.81;1718812;83;20129;-91
2021/06/13 04:56:43;;;;;;;;;;;;;;;15.12;71.98;96645.19;1692943;85;20154;-91
2021/06/13 04:59:09;;;;;;;;;;;;;;;15.18;70.82;96643.70;1692963;85;20213;-90
2021/06/13 05:01:36;;;;;;;;;;;;;;;15.24;71.18;96636.41;1713288;83;20109;-92
2021/06/13 05:04:03;;;;;;;;;;;;;;;15.30;71.92;96645.88;1713261;83;20106;-93
2021/06/13 05:06:29;;;;;;;;;;;;;;;15.36;72.06;96658.19;1710638;84;20117;-91
2021/06/13 05:08:55;;;;;;;;;;;;;;;15.44;71.88;96655.53;1710544;83;20115;-92
2021/06/13 05:11:21;;;;;;;;;;;;;;;15.51;71.57;96664.50;1710650;83;20105;-91
2021/06/13 05:13:47;;;;;;;;;;;;;;;15.58;70.98;96666.82;1710625;83;20121;-91
2021/06/13 05:16:14;;;;;;;;;;;;;;;15.63;70.56;96669.49;1710788;84;20134;-92
2021/06/13 05:18:40;;;;;;;;;;;;;;;15.66;70.68;96673.13;1710638;84;20117;-90
2021/06/13 05:21:06;;;;;;;;;;;;;;;15.69;70.73;96673.62;1712902;83;20445;-92
2021/06/13 05:23:32;;;;;;;;;;;;;;;15.71;70.90;96683.59;1721411;83;20234;-92
2021/06/13 05:26:00;;;;;;;;;;;;;;;15.72;71.09;96685.77;1721365;83;20184;-90
2021/06/13 05:28:26;;;;;;;;;;;;;;;15.72;70.67;96690.56;1721773;83;20473;-91
2021/06/13 05:30:53;;;;;;;;;;;;;;;15.75;70.75;96696.05;1717521;83;20172;-91
2021/06/13 05:33:20;;;;;;;;;;;;;;;15.76;70.59;96697.23;1707099;83;20147;-90
2021/06/13 05:35:48;;;;;;;;;;;;;;;15.79;71.01;96701.37;1711209;84;20132;-90
2021/06/13 05:38:14;;;;;;;;;;;;;;;15.83;70.04;96700.02;1714500;84;20529;-88
2021/06/13 05:40:40;;;;;;;;;;;;;;;15.90;69.87;96711.70;1714619;84;20192;-89
2021/06/13 05:43:08;;;;;;;;;;;;;;;16.01;69.86;96703.89;1714581;84;20215;-90
2021/06/13 05:45:35;;;;;;;;;;;;;;;16.05;69.37;96705.70;1714375;82;20147;-90
2021/06/13 05:48:02;;;;;;;;;;;;;;;16.00;69.99;96718.69;1714540;83;20131;-90
2021/06/13 05:50:29;;;;;;;;;;;;;;;15.96;69.46;96723.98;1714251;84;20125;-89
2021/06/13 05:52:55;;;;;;;;;;;;;;;15.93;70.05;96718.00;1710225;84;20102;-90
2021/06/13 05:55:21;;;;;;;;;;;;;;;15.97;69.78;96726.98;1708752;84;20136;-91
2021/06/13 05:57:49;;;;;;;;;;;;;;;15.98;69.61;96735.29;1706101;83;20430;-89
2021/06/13 06:00:18;;;;;;;;;;;;;;;15.97;70.41;96740.27;1701219;84;20436;-89
2021/06/13 06:02:46;;;;;;;;;;;;;;;15.96;69.82;96744.73;1711406;83;20156;-90
2021/06/13 06:05:13;;;;;;;;;;;;;;;15.98;69.92;96752.56;1710643;83;20419;-90
2021/06/13 06:07:40;;;;;;;;;;;;;;;15.94;70.09;96753.40;1718863;83;20437;-87
2021/06/13 06:10:08;;;;;;;;;;;;;;;15.91;69.80;96751.88;1715672;83;20135;-86
2021/06/13 06:12:35;;;;;;;;;;;;;;;16.03;69.89;96759.53;1720232;83;20169;-87
2021/06/13 06:15:03;;;;;;;;;;;;;;;16.28;69.86;96750.23;1707023;84;20411;-88
2021/06/13 06:17:29;;;;;;;;;;;;;;;16.53;69.64;96745.20;1707028;84;20139;-88
2021/06/13 06:19:55;;;;;;;;;;;;;;;16.69;68.93;96750.99;1707069;84;20143;-88
2021/06/13 06:22:21;;;;;;;;;;;;;;;16.77;68.23;96746.64;1707169;84;20099;-89
2021/06/13 06:24:47;;;;;;;;;;;;;;;16.79;67.94;96749.97;1706890;84;20143;-89
2021/06/13 06:27:15;;;;;;;;;;;;;;;16.77;68.02;96750.12;1707015;84;20115;-89
2021/06/13 06:29:41;;;;;;;;;;;;;;;16.71;68.25;96755.63;1706935;84;20102;-85
2021/06/13 06:32:07;;;;;;;;;;;;;;;16.68;68.50;96749.81;1706945;84;20122;-86
2021/06/13 06:34:34;;;;;;;;;;;;;;;16.67;68.21;96752.14;1707047;84;20412;-88
2021/06/13 06:37:00;;;;;;;;;;;;;;;16.75;69.15;96748.13;1706979;84;20439;-88
2021/06/13 06:39:26;;;;;;;;;;;;;;;16.82;68.08;96752.27;1707010;84;20091;-88
2021/06/13 06:41:56;;;;;;;;;;;;;;;16.89;69.01;96747.91;1706958;84;20102;-88
2021/06/13 06:44:20;;;;;;;;;;;;;;;16.93;68.22;96736.45;1675539;86;20361;-89
2021/06/13 06:46:46;;;;;;;;;;;;;;;16.94;68.06;96738.11;1714273;82;20417;-88
2021/06/13 06:49:12;;;;;;;;;;;;;;;17.25;68.34;96736.84;1677785;85;20657;-87
2021/06/13 06:51:38;;;;;;;;;;;;;;;17.69;66.85;96736.72;1672322;85;20422;-87
2021/06/13 06:54:05;;;;;;;;;;;;;;;17.98;66.22;96745.87;1671695;86;20421;-87
2021/06/13 06:56:31;;;;;;;;;;;;;;;18.38;65.39;96743.03;1696000;85;20111;-88
2021/06/13 06:58:58;;;;;;;;;;;;;;;19.15;65.62;96741.08;1696115;85;20111;-87
2021/06/13 07:01:24;;;;;;;;;;;;;;;19.82;61.78;96739.97;1696359;85;20158;-87
2021/06/13 07:03:51;;;;;;;;;;;;;;;20.48;64.40;96742.09;1701662;84;20131;-86
2021/06/13 07:06:17;;;;;;;;;;;;;;;21.19;57.23;96726.86;1699821;84;20115;-87
2021/06/13 07:08:43;;;;;;;;;;;;;;;21.95;55.99;96729.89;1703630;84;20103;-88
2021/06/13 07:11:09;;;;;;;;;;;;;;;22.55;62.92;96742.50;1702950;84;20107;-87
2021/06/13 07:13:37;;;;;;;;;;;;;;;22.97;52.85;96737.38;1657776;86;20110;-86
2021/06/13 07:16:03;;;;;;;;;;;;;;;23.17;52.05;96733.27;1710799;84;20122;-89
2021/06/13 07:18:29;;;;;;;;;;;;;;;23.00;52.78;96731.59;1710675;84;20114;-87
2021/06/13 07:20:56;;;;;;;;;;;;;;;22.48;54.14;96743.56;1719109;83;20127;-87
2021/06/13 07:23:23;;;;;;;;;;;;;;;22.09;52.84;96733.41;1707240;84;20139;-90
2021/06/13 07:25:49;;;;;;;;;;;;;;;21.76;53.06;96744.09;1706749;84;20099;-89
2021/06/13 07:28:16;;;;;;;;;;;;;;;21.23;55.46;96734.83;1706134;84;20095;-85
2021/06/13 07:30:43;;;;;;;;;;;;;;;20.80;55.39;96743.89;1710116;83;20126;-88
2021/06/13 07:33:10;;;;;;;;;;;;;;;20.48;58.23;96746.10;1740864;82;20454;-88
2021/06/13 07:35:37;;;;;;;;;;;;;;;20.07;57.08;96753.50;1706784;83;20199;-88
2021/06/13 07:38:03;;;;;;;;;;;;;;;19.65;56.85;96763.96;1748906;82;20204;-88
2021/06/13 07:40:31;;;;;;;;;;;;;;;19.37;58.10;96777.19;1724557;82;20156;-87
2021/06/13 07:42:57;;;;;;;;;;;;;;;19.01;56.14;96777.47;1733217;82;20114;-85
2021/06/13 07:45:24;;;;;;;;;;;;;;;18.85;57.43;96782.45;1722182;82;20129;-86
2021/06/13 07:47:51;;;;;;;;;;;;;;;18.78;57.57;96791.69;1745850;82;20121;-87
2021/06/13 07:50:19;;;;;;;;;;;;;;;18.55;56.85;96787.26;1739297;82;20125;-84
2021/06/13 07:52:46;;;;;;;;;;;;;;;18.54;57.01;96794.94;1721563;83;20175;-89
2021/06/13 07:55:15;;;;;;;;;;;;;;;18.46;56.82;96792.34;1740341;82;20540;-86
2021/06/13 07:57:45;;;;;;;;;;;;;;;18.25;57.74;96790.34;1727748;82;20473;-86
2021/06/13 08:00:16;;;;;;;;;;;;;;;18.23;58.09;96791.04;1716972;83;20149;-86
2021/06/13 08:02:42;;;;;;;;;;;;;;;18.09;58.01;96800.13;1721464;83;20438;-87
2021/06/13 08:05:11;;;;;;;;;;;;;;;17.90;58.19;96802.75;1721567;83;20413;-85
2021/06/13 08:07:38;;;;;;;;;;;;;;;17.78;58.85;96800.97;1718046;82;20137;-89
2021/06/13 08:10:09;;;;;;;;;;;;;;;17.79;58.62;96802.63;1711098;83;20142;-86
2021/06/13 08:12:35;;;;;;;;;;;;;;;17.91;58.81;96806.23;1710502;83;20407;-85
2021/06/13 08:15:02;;;;;;;;;;;;;;;17.97;58.50;96796.20;1719353;83;20122;-89
2021/06/13 08:17:28;;;;;;;;;;;;;;;18.17;57.78;96815.74;1711366;83;20138;-88
2021/06/13 08:19:54;;;;;;;;;;;;;;;18.36;58.15;96815.26;1715867;82;20453;-86
2021/06/13 08:22:26;;;;;;;;;;;;;;;18.57;57.57;96819.09;1723142;82;20136;-86
2021/06/13 08:24:54;;;;;;;;;;;;;;;18.71;56.87;96828.95;1737659;82;20118;-87
2021/06/13 08:27:20;;;;;;;;;;;;;;;18.72;56.57;96824.46;1717652;82;20106;-87
2021/06/13 08:29:46;;;;;;;;;;;;;;;18.69;56.31;96823.48;1711639;83;20117;-87
2021/06/13 08:32:12;;;;;;;;;;;;;;;18.56;56.46;96808.91;1709191;82;20143;-88
2021/06/13 08:34:38;;;;;;;;;;;;;;;18.71;56.45;96828.14;1713782;82;20165;-86
2021/06/13 08:37:04;;;;;;;;;;;;;;;18.76;56.29;96835.60;1727097;82;20156;-87
2021/06/13 08:39:31;;;;;;;;;;;;;;;18.83;56.79;96833.86;1742582;82;20122;-89
2021/06/13 08:41:57;;;;;;;;;;;;;;;19.11;56.03;96830.59;1720960;82;20121;-87
2021/06/13 08:44:23;;;;;;;;;;;;;;;19.31;55.52;96841.06;1719971;82;20128;-88
2021/06/13 08:46:52;;;;;;;;;;;;;;;19.43;54.94;96839.27;1720610;83;20128;-89
2021/06/13 08:49:23;;;;;;;;;;;;;;;19.42;54.06;96837.08;1704290;83;20429;-87
2021/06/13 08:51:49;;;;;;;;;;;;;;;19.59;53.07;96841.73;1710737;83;20105;-86
2021/06/13 08:54:16;;;;;;;;;;;;;;;19.90;51.87;96831.81;1710961;83;20098;-86
2021/06/13 08:56:42;;;;;;;;;;;;;;;20.06;49.29;96826.75;1711161;83;20102;-88
2021/06/13 08:59:10;;;;;;;;;;;;;;;20.05;48.84;96824.56;1712263;83;20114;-88
2021/06/13 09:01:36;;;;;;;;;;;;;;;19.90;48.11;96838.02;1711528;83;20125;-85
2021/06/13 09:04:02;;;;;;;;;;;;;;;20.02;48.80;96837.00;1718948;83;20126;-87
2021/06/13 09:06:29;;;;;;;;;;;;;;;20.15;49.57;96839.47;1710671;83;20112;-88
2021/06/13 09:08:55;;;;;;;;;;;;;;;20.11;48.92;96853.25;1713384;83;20165;-88
2021/06/13 09:11:31;;;;;;;;;;;;;;;19.94;48.21;96853.17;1720086;83;20125;-87
2021/06/13 09:14:14;;;;;;;;;;;;;;;19.65;48.89;96864.21;1720132;83;20172;-87
2021/06/13 09:16:44;;;;;;;;;;;;;;;19.37;49.65;96864.03;1721572;83;20472;-88
2021/06/13 09:19:11;;;;;;;;;;;;;;;19.33;48.46;96859.08;1714932;83;20442;-87
2021/06/13 09:21:42;;;;;;;;;;;;;;;19.50;48.64;96872.24;1711520;83;20121;-86
2021/06/13 09:24:20;;;;;;;;;;;;;;;19.72;48.04;96855.76;1710053;83;20149;-89
2021/06/13 09:26:47;;;;;;;;;;;;;;;19.95;47.82;96856.17;1697024;83;20153;-89
2021/06/13 09:29:13;;;;;;;;;;;;;;;20.05;46.84;96852.66;1720912;83;20140;-88
2021/06/13 09:31:39;;;;;;;;;;;;;;;19.96;46.67;96855.97;1721795;83;20477;-88
2021/06/13 09:34:06;;;;;;;;;;;;;;;19.80;45.49;96864.19;1720145;83;20128;-87
2021/06/13 09:36:33;;;;;;;;;;;;;;;19.50;46.05;96870.91;1705150;83;20693;-86
2021/06/13 09:39:04;;;;;;;;;;;;;;;19.27;46.68;96868.33;1721784;83;20133;-88
2021/06/13 09:41:30;;;;;;;;;;;;;;;19.21;47.38;96880.58;1720999;82;20437;-86
2021/06/13 09:44:00;;;;;;;;;;;;;;;19.30;47.68;96888.02;1717321;83;20102;-84
2021/06/13 09:46:31;;;;;;;;;;;;;;;19.42;47.56;96889.72;1719465;82;20441;-88
2021/06/13 09:49:14;;;;;;;;;;;;;;;19.40;47.90;96890.40;1720954;83;20434;-87
2021/06/13 09:51:49;;;;;;;;;;;;;;;19.48;47.68;96893.82;1718082;83;20112;-85
2021/06/13 09:54:20;;;;;;;;;;;;;;;19.60;45.86;96896.85;1720174;83;20144;-86
2021/06/13 09:56:47;;;;;;;;;;;;;;;19.81;45.49;96896.08;1733362;82;20127;-88
2021/06/13 09:59:15;;;;;;;;;;;;;;;20.07;44.74;96904.65;1725997;82;20408;-86
2021/06/13 10:01:50;;;;;;;;;;;;;;;20.15;43.49;96899.18;1721705;83;20411;-89
2021/06/13 10:04:24;;;;;;;;;;;;;;;20.08;42.60;96898.28;1721812;82;20107;-85
2021/06/13 10:06:53;;;;;;;;;;;;;;;19.97;44.12;96904.93;1721885;83;20110;-86
2021/06/13 10:09:21;;;;;;;;;;;;;;;20.06;44.74;96915.02;1721837;83;20168;-87
2021/06/13 10:11:50;;;;;;;;;;;;;;;20.01;43.55;96905.38;1721830;83;20160;-85
2021/06/13 10:14:17;;;;;;;;;;;;;;;20.18;43.89;96914.02;1721715;83;20160;-86
2021/06/13 10:16:50;;;;;;;;;;;;;;;20.43;44.94;96909.96;1721839;83;20152;-84
2021/06/13 10:19:20;;;;;;;;;;;;;;;20.82;43.96;96901.20;1748844;82;20107;-86
2021/06/13 10:21:54;;;;;;;;;;;;;;;21.01;43.53;96919.78;1751814;82;20123;-87
2021/06/13 10:24:24;;;;;;;;;;;;;;;21.18;43.79;96914.98;1751634;82;20147;-87
2021/06/13 10:26:55;;;;;;;;;;;;;;;21.05;41.10;96919.73;1750160;82;20138;-87
2021/06/13 10:29:22;;;;;;;;;;;;;;;20.85;42.33;96913.38;1751919;82;20123;-86
2021/06/13 10:31:51;;;;;;;;;;;;;;;20.75;42.48;96913.19;1751593;82;20095;-87
2021/06/13 10:34:19;;;;;;;;;;;;;;;20.57;43.21;96925.64;1751228;82;20119;-87
2021/06/13 10:36:45;;;;;;;;;;;;;;;20.52;42.31;96944.64;1748872;82;20408;-86
2021/06/13 10:39:14;;;;;;;;;;;;;;;20.50;43.50;96942.69;1748879;82;20387;-88
2021/06/13 10:41:41;;;;;;;;;;;;;;;20.58;42.79;96952.74;1748970;82;20103;-88
2021/06/13 10:44:12;;;;;;;;;;;;;;;20.47;42.02;96949.75;1739171;82;20099;-85
2021/06/13 10:46:44;;;;;;;;;;;;;;;20.33;42.80;96944.76;1703689;83;20127;-87
2021/06/13 10:49:33;;;;;;;;;;;;;;;20.36;43.63;96949.22;1703907;84;20107;-83
2021/06/13 10:52:09;;;;;;;;;;;;;;;20.29;43.26;96947.80;1704295;84;20123;-87
2021/06/13 10:54:51;;;;;;;;;;;;;;;20.13;43.24;96958.73;1703386;83;20166;-87
2021/06/13 10:57:22;;;;;;;;;;;;;;;19.89;43.15;96937.13;1704360;84;20416;-87
2021/06/13 10:59:51;;;;;;;;;;;;;;;19.81;43.87;96942.06;1686609;84;20137;-86
2021/06/13 11:02:22;;;;;;;;;;;;;;;19.81;44.02;96935.38;1698886;84;20121;-87
2021/06/13 11:04:54;;;;;;;;;;;;;;;19.72;44.03;96939.98;1674609;86;20125;-87
2021/06/13 11:07:29;;;;;;;;;;;;;;;19.79;44.28;96942.75;1685273;84;20126;-88
2021/06/13 11:10:16;;;;;;;;;;;;;;;19.95;44.08;96961.30;1695742;84;20134;-87
2021/06/13 11:12:49;;;;;;;;;;;;;;;20.09;43.40;96945.42;1697366;83;20171;-88
2021/06/13 11:15:30;;;;;;;;;;;;;;;20.31;40.44;96932.06;1697654;84;20396;-84
2021/06/13 11:18:15;;;;;;;;;;;;;;;20.54;42.09;96939.44;1697217;84;20126;-85
2021/06/13 11:20:53;;;;;;;;;;;;;;;20.75;38.17;96950.69;1704270;84;20134;-85
2021/06/13 11:23:25;;;;;;;;;;;;;;;20.79;37.76;96940.41;1704303;83;20162;-87
2021/06/13 11:25:59;;;;;;;;;;;;;;;20.77;38.02;96944.31;1692682;83;20087;-86
2021/06/13 11:28:30;;;;;;;;;;;;;;;20.69;39.28;96935.85;1716895;83;20167;-87
2021/06/13 11:31:00;;;;;;;;;;;;;;;20.79;39.37;96944.95;1704204;84;20185;-85
2021/06/13 11:33:49;;;;;;;;;;;;;;;20.83;38.50;96935.50;1696142;84;20107;-89
2021/06/13 11:36:22;;;;;;;;;;;;;;;20.86;39.82;96943.97;1700694;84;20186;-87
2021/06/13 11:38:52;;;;;;;;;;;;;;;20.82;38.22;96934.69;1670393;86;20160;-91
2021/06/13 11:41:27;;;;;;;;;;;;;;;20.89;39.02;96938.24;1675507;85;20374;-86
2021/06/13 11:43:54;;;;;;;;;;;;;;;20.97;39.89;96945.81;1682664;85;20394;-87
2021/06/13 11:46:37;;;;;;;;;;;;;;;21.09;38.90;96948.30;1678693;85;20110;-88
2021/06/13 11:49:14;;;;;;;;;;;;;;;21.18;40.45;96947.13;1679591;85;20141;-87
2021/06/13 11:52:00;;;;;;;;;;;;;;;21.15;40.06;96947.52;1677783;85;20085;-86
2021/06/13 11:54:31;;;;;;;;;;;;;;;21.05;40.22;96938.48;1680008;85;20138;-87
2021/06/13 11:56:58;;;;;;;;;;;;;;;20.92;39.70;96946.92;1682489;85;20106;-86
2021/06/13 11:59:25;;;;;;;;;;;;;;;20.74;38.54;96937.50;1682582;85;20117;-88
2021/06/13 12:01:56;;;;;;;;;;;;;;;20.68;39.53;96940.39;1682695;85;20098;-88
2021/06/13 12:04:22;;;;;;;;;;;;;;;20.63;39.17;96943.33;1684852;84;20124;-85
2021/06/13 12:06:50;;;;;;;;;;;;;;;20.54;38.81;96939.93;1684743;84;20416;-86
2021/06/13 12:09:18;;;;;;;;;;;;;;;20.60;39.42;96949.38;1682788;85;20173;-85
2021/06/13 12:11:52;;;;;;;;;;;;;;;20.64;40.13;96953.02;1685752;84;20097;-84
2021/06/13 12:14:41;;;;;;;;;;;;;;;20.68;38.50;96946.24;1682442;85;20125;-87
2021/06/13 12:17:17;;;;;;;;;;;;;;;20.55;39.80;96947.79;1708402;84;20146;-88
2021/06/13 12:20:01;;;;;;;;;;;;;;;20.43;40.15;96954.66;1710109;84;20137;-88
2021/06/13 12:27:50;;;;;;;;;;;;;;;20.27;39.90;96953.88;1667415;86;20122;-91
2021/06/13 12:30:27;;;;;;;;;;;;;;;20.23;41.03;96957.93;1714378;83;20172;-83
2021/06/13 12:33:03;;;;;;;;;;;;;;;20.23;39.46;96949.91;1728871;82;20190;-84
2021/06/13 12:35:31;;;;;;;;;;;;;;;20.20;40.34;96954.28;1731334;82;20137;-82
2021/06/13 12:38:06;;;;;;;;;;;;;;;20.21;40.48;96947.10;1723423;83;20145;-83
2021/06/13 12:40:48;;;;;;;;;;;;;;;20.33;39.41;96949.59;1722038;83;20469;-83
2021/06/13 12:43:17;;;;;;;;;;;;;;;20.46;39.22;96936.04;1722074;83;20164;-83
2021/06/13 12:45:45;;;;;;;;;;;;;;;20.47;39.05;96945.20;1722939;82;20441;-84
2021/06/13 12:48:12;;;;;;;;;;;;;;;20.11;38.80;96948.23;1726885;82;20417;-84
2021/06/13 12:50:41;;;;;;;;;;;;;;;19.73;39.43;96938.97;1717603;83;20136;-82
2021/06/13 12:53:11;;;;;;;;;;;;;;;19.71;40.35;96941.52;1723005;83;20414;-82
2021/06/13 12:55:39;;;;;;;;;;;;;;;19.74;39.80;96945.13;1721259;83;20472;-83
2021/06/13 12:58:14;;;;;;;;;;;;;;;19.76;40.35;96944.45;1721418;83;20476;-81
2021/06/13 13:00:40;;;;;;;;;;;;;;;19.85;40.44;96935.34;1721557;83;20124;-81
2021/06/13 13:03:11;;;;;;;;;;;;;;;19.93;39.51;96937.91;1723097;83;20121;-83
2021/06/13 13:05:39;;;;;;;;;;;;;;;19.97;39.26;96939.21;1722937;83;20139;-84
2021/06/13 13:08:14;;;;;;;;;;;;;;;19.90;38.84;96943.66;1723582;83;20139;-84